Language selection

Features

My Weather Profile Weather Topics  | 

Atlantic - Newfoundland: Past 24 Hour Conditions

 

Banquereau - 44139

12:00 PM ADT 20 October 2020Buoy position: 44.27N 57.08W
Disclaimer

This table is a summary of hourly weather conditions for the past 24 hours.
Please note that these observations might not always be representative of weather conditions over their associated marine area.

Date / Time
(ADT)
Wind(knots) Wave height(m) Wave period(s) Pressure(kPa) Air tempC) Water tempC)
20 October 2020
12:00 S 8 gust 8 1.7 10.0 103.1 16 14
11:00 S 6 gust 6 1.7 11.0 103.1 16 13
10:00 S 6 gust 8 1.6 10.0 103.1 15 13
9:00 S 8 gust 10 1.7 10.0 103.1 15 13
8:00 SSE 10 gust 12 1.7 9.0 103.1 15 13
7:00 SSE 10 gust 12 1.9 10.0 103.1 15 13
6:00 SSE 8 gust 10 1.9 10.0 103.2 15 14
5:00 SSE 8 gust 10 1.9 9.0 103.1 15 14
4:00 SSE 6 gust 8 2.0 8.0 103.2 15 15
3:00 SSE 4 gust 4 2.0 9.0 103.2 15 15
2:00 S 6 gust 8 2.0 8.0 103.2 15 15
1:00 S 8 gust 10 1.9 8.0 103.2 15 15
0:00 S 10 gust 12 1.8 9.0 103.2 15 15
19 October 2020
23:00 S 10 gust 12 1.6 8.0 103.3 15 15
22:00 S 8 gust 10 1.6 10.0 103.3 15 15
21:00 SSE 12 gust 13 1.7 8.0 103.3 15 15
20:00 SSE 8 gust 10 1.7 9.0 103.3 15 15
19:00 SSE 10 gust 12 1.7 8.0 103.3 15 15
18:00 SSE 12 gust 13 1.6 9.0 103.2 15 15
17:00 SSE 12 gust 13 1.4 8.0 103.2 15 15
16:00 SSE 12 gust 13 1.5 8.0 103.2 15 15
15:00 SSE 13 gust 16 1.5 8.0 103.2 16 16
14:00 SSE 13 gust 16 1.4 8.0 103.2 16 16
13:00 SSE 13 gust 16 1.4 8.0 103.2 16 16
12:00 SSE 12 gust 13 1.5 8.0 103.3 16 16

Zoom-in to make a selection

Map of Atlantic - Newfoundland marine weather areas Banquereau - 44139 East Chedabucto Bay - 44488 West Chedabucto Bay - 44489 Blanc-Sablon Airport Cap Whittle Chevery Natashquan Airport Heath Point Îles de la Madeleine Airport Miscou Island Eskasoni (First Nations) Grand Étang Ingonish Beach North Mountain St.Paul Island J.A. Douglas McCurdy Sydney Airport Charlottetown Airport East Point North Cape Argentia Bonavista Burgeo Cape Race Corner Brook Daniel's Harbour Englee Ferolle Point La Scie Port aux Basques Rocky Harbour Sagona Island St. Anthony Airport St. John's Int'l Airport St. Lawrence Stephenville Airport Twillingate Winterland Branch Hill Wreckhouse Grates Cove Pool's Island Marticot Island Long Pond Cartwright Airport Mary's Harbour
Legend:
buoy Buoy
land station Land Station

Atlantic - Newfoundland Area

Another Region

What we are doing

Date modified: